createdAt,value
2022-08-11T15:01:48.952Z,24.51
2022-08-11T15:04:36.315Z,24.49
2022-08-11T15:07:05.350Z,24.52
2022-08-11T15:10:11.795Z,24.56
2022-08-11T15:12:36.605Z,24.64
2022-08-11T15:15:26.699Z,24.81
2022-08-11T15:17:57.592Z,24.80
2022-08-11T15:20:48.420Z,24.85
2022-08-11T15:23:40.330Z,24.82
2022-08-11T15:26:16.811Z,24.87
2022-08-11T15:29:08.097Z,24.86
2022-08-11T15:31:57.283Z,24.83
2022-08-11T15:34:47.568Z,24.76
2022-08-11T15:37:28.098Z,24.67
2022-08-11T15:40:31.212Z,24.70
2022-08-11T15:43:29.524Z,24.71
2022-08-11T15:46:02.458Z,24.75
2022-08-11T15:48:33.612Z,24.67
2022-08-11T15:52:01.584Z,24.49
2022-08-11T15:54:32.708Z,24.46
2022-08-11T15:57:02.418Z,24.43
2022-08-11T15:59:53.128Z,24.44
2022-08-11T16:02:41.430Z,24.47
2022-08-11T16:05:13.565Z,24.45
2022-08-11T16:07:43.211Z,24.43
2022-08-11T16:10:21.872Z,24.35
2022-08-11T16:13:06.784Z,24.34
2022-08-11T16:16:11.209Z,24.32
2022-08-11T16:18:51.875Z,24.20
2022-08-11T16:21:35.036Z,24.12
2022-08-11T16:26:30.600Z,24.09
2022-08-11T16:27:13.666Z,24.01
2022-08-11T16:29:48.009Z,23.91
2022-08-11T16:32:23.332Z,23.88
2022-08-11T16:35:21.436Z,23.89
2022-08-11T16:38:09.203Z,23.81
2022-08-11T16:40:39.324Z,23.77
2022-08-11T16:43:28.727Z,23.69
2022-08-11T16:46:17.605Z,23.60
2022-08-11T16:48:49.606Z,23.58
2022-08-11T16:51:21.217Z,23.50
2022-08-11T16:54:04.511Z,23.48
2022-08-11T16:56:42.218Z,23.46
2022-08-11T16:59:20.548Z,23.45
2022-08-11T17:01:58.302Z,23.52
2022-08-11T17:05:05.673Z,23.65
2022-08-11T17:07:52.892Z,23.63
2022-08-11T17:10:53.257Z,23.65
2022-08-11T17:13:31.940Z,23.67
2022-08-11T17:16:07.753Z,23.63
2022-08-11T17:18:43.466Z,23.64
2022-08-11T17:21:20.583Z,23.67
2022-08-11T17:23:55.476Z,23.68
2022-08-11T17:26:55.787Z,23.67
2022-08-11T17:29:33.917Z,23.64
2022-08-11T17:32:56.700Z,23.74
2022-08-11T17:35:46.996Z,23.63
2022-08-11T17:38:21.666Z,23.60
2022-08-11T17:41:23.777Z,23.49
2022-08-11T17:44:12.745Z,23.34
2022-08-11T17:47:05.682Z,23.23
2022-08-11T17:49:38.041Z,23.10
2022-08-11T17:52:26.589Z,23.07
2022-08-11T17:55:14.593Z,22.93
2022-08-11T17:58:02.628Z,22.77
2022-08-11T18:00:31.972Z,22.62
2022-08-11T18:03:20.352Z,22.47
2022-08-11T18:05:49.283Z,22.33
2022-08-11T18:08:39.495Z,22.12
2022-08-11T18:12:06.962Z,21.92
2022-08-11T18:14:37.127Z,21.76
2022-08-11T18:17:24.625Z,21.62
2022-08-11T18:20:11.294Z,21.54
2022-08-11T18:23:03.470Z,21.46
2022-08-11T18:26:01.393Z,21.24
2022-08-11T18:28:56.774Z,21.15
2022-08-11T18:31:45.141Z,21.09
2022-08-11T18:34:35.488Z,20.99
2022-08-11T18:37:29.108Z,21.02
2022-08-11T18:40:29.326Z,21.06
2022-08-11T18:43:26.408Z,20.90
2022-08-11T18:46:20.222Z,20.79
2022-08-11T18:49:26.634Z,20.70
2022-08-11T18:52:24.714Z,20.82
2022-08-11T18:55:17.185Z,20.80
2022-08-11T18:58:08.135Z,20.64
2022-08-11T19:00:57.331Z,20.50
2022-08-11T19:03:49.372Z,20.56
2022-08-11T19:06:41.308Z,20.51
2022-08-11T19:09:33.620Z,20.46
2022-08-11T19:12:22.062Z,20.41
2022-08-11T19:15:10.917Z,20.33
2022-08-11T19:18:03.594Z,20.23
2022-08-11T19:20:53.737Z,20.13
2022-08-11T19:24:02.703Z,20.05
2022-08-11T19:26:52.525Z,20.12
2022-08-11T19:30:04.797Z,20.01
2022-08-11T19:32:49.835Z,19.97
2022-08-11T19:35:37.736Z,19.92
2022-08-11T19:38:24.217Z,19.88
2022-08-11T19:41:12.733Z,19.80
2022-08-11T19:44:03.764Z,19.75
2022-08-11T19:46:51.145Z,19.69
2022-08-11T19:49:38.592Z,19.62
2022-08-11T19:52:25.605Z,19.59
2022-08-11T19:55:12.653Z,19.59
2022-08-11T19:58:00.880Z,19.51
2022-08-11T20:00:48.730Z,19.45
2022-08-11T20:03:35.318Z,19.34
2022-08-11T20:06:25.449Z,19.38
2022-08-11T20:09:17.072Z,19.44
2022-08-11T20:12:08.633Z,19.31
2022-08-11T20:14:58.334Z,19.17
2022-08-11T20:17:47.977Z,19.14
2022-08-11T20:20:36.345Z,19.10
2022-08-11T20:23:27.282Z,19.03
2022-08-11T20:26:30.688Z,18.96
2022-08-11T20:29:19.816Z,18.90
2022-08-11T20:32:09.593Z,18.89
2022-08-11T20:34:57.973Z,18.88
2022-08-11T20:37:50.766Z,18.92
2022-08-11T20:40:39.804Z,19.02
2022-08-11T20:44:06.147Z,19.05
2022-08-11T20:46:39.004Z,19.02
2022-08-11T20:52:38.204Z,19.00
2022-08-11T20:55:51.598Z,19.01
2022-08-11T20:59:04.072Z,19.07
2022-08-11T21:01:44.452Z,19.10
2022-08-11T21:04:32.409Z,19.16
2022-08-11T21:07:41.199Z,19.15
2022-08-11T21:10:29.966Z,19.15
2022-08-11T21:13:27.017Z,19.15
2022-08-11T21:16:26.175Z,19.13
2022-08-11T21:20:00.389Z,19.14
2022-08-11T21:22:59.706Z,19.21
2022-08-11T21:26:02.112Z,19.37
2022-08-11T21:28:50.648Z,19.54
2022-08-11T21:31:38.621Z,19.55
2022-08-11T21:34:27.038Z,19.62
2022-08-11T21:37:14.036Z,19.48
2022-08-11T21:40:01.802Z,19.40
2022-08-11T21:42:50.935Z,19.41
2022-08-11T21:45:38.724Z,19.36
2022-08-11T21:48:27.489Z,19.47
2022-08-11T21:51:14.011Z,19.50
2022-08-11T21:54:01.250Z,19.58
2022-08-11T21:56:49.617Z,19.64
2022-08-11T21:59:42.450Z,19.69
2022-08-11T22:02:28.711Z,19.60
2022-08-11T22:05:15.849Z,19.64
2022-08-11T22:08:02.562Z,19.68
2022-08-11T22:10:49.445Z,19.67
2022-08-11T22:13:35.971Z,19.59
2022-08-11T22:16:23.042Z,19.52
2022-08-11T22:19:10.912Z,19.43
2022-08-11T22:22:03.913Z,19.43
2022-08-11T22:24:52.335Z,19.47
2022-08-11T22:27:40.558Z,19.47
2022-08-11T22:30:29.801Z,19.56
2022-08-11T22:33:27.016Z,19.67
2022-08-11T22:36:16.935Z,19.71
2022-08-11T22:39:05.983Z,19.66
2022-08-11T22:41:52.821Z,19.70
2022-08-11T22:44:39.496Z,19.67
2022-08-11T22:47:40.335Z,19.70
2022-08-11T22:50:28.785Z,19.76
2022-08-11T22:53:16.561Z,19.80
2022-08-11T22:56:03.854Z,19.75
2022-08-11T22:58:51.900Z,19.70
2022-08-11T23:01:39.229Z,19.66
2022-08-11T23:04:42.523Z,19.68
2022-08-11T23:07:49.817Z,19.71
2022-08-11T23:10:37.711Z,19.62
2022-08-11T23:13:25.007Z,19.61
2022-08-11T23:16:15.611Z,19.71
2022-08-11T23:19:02.769Z,19.67
2022-08-11T23:21:50.981Z,19.58
2022-08-11T23:24:40.159Z,19.56
2022-08-11T23:27:28.659Z,19.51
2022-08-11T23:30:19.274Z,19.30
2022-08-11T23:33:12.691Z,19.34
2022-08-11T23:36:05.323Z,19.29
2022-08-11T23:38:53.024Z,19.33
2022-08-11T23:41:40.313Z,19.38
2022-08-11T23:44:27.667Z,19.32
2022-08-11T23:47:18.260Z,19.23
2022-08-11T23:50:07.160Z,19.20
2022-08-11T23:52:55.596Z,19.12
2022-08-11T23:55:41.902Z,19.12
2022-08-11T23:58:30.414Z,19.18
